This is the latest recevied weather packets stored in our database for station/object KJ6HT. If no packets are shown the sender has not sent any weather packets the latest 10 day(s).
| Time | Temp. | Humidity | Pressure | Rain* | Wind** | Luminosity | Snow |
|---|---|---|---|---|---|---|---|
| 1776979817 | 25.56° C | 33% | 1012 hPa | 0 mm | - | - | - |
| 1776978978 | 25° C | 35% | 1012.3 hPa | 0 mm | - | - | - |
| 1776978073 | 25° C | 33% | 1012.6 hPa | 0 mm | - | - | - |
| 1776977122 | 25° C | 35% | 1012.8 hPa | 0 mm | - | - | - |
| 1776976275 | 23.89° C | 38% | 1012.9 hPa | 0 mm | - | - | - |
| 1776975340 | 23.33° C | 40% | 1013.1 hPa | 0 mm | - | - | - |
| 1776974426 | 22.78° C | 40% | 1013.4 hPa | 0 mm | - | - | - |
| 1776973591 | 22.78° C | 40% | 1013.6 hPa | 0 mm | - | - | - |
| 1776972637 | 21.67° C | 42% | 1013.9 hPa | 0 mm | - | - | - |
| 1776971786 | 21.67° C | 44% | 1014.2 hPa | 0 mm | - | - | - |
| 1776970878 | 20.56° C | 45% | 1014.6 hPa | 0 mm | - | - | - |
| 1776969935 | 21.11° C | 46% | 1014.7 hPa | 0 mm | - | - | - |
| 1776969022 | 20° C | 51% | 1015 hPa | 0 mm | - | - | - |
| 1776968179 | 19.44° C | 53% | 1015 hPa | 0 mm | - | - | - |
| 1776967249 | 18.89° C | 56% | 1015.2 hPa | 0 mm | - | - | - |
| 1776966407 | 17.78° C | 57% | 1015.2 hPa | 0 mm | - | - | - |
| 1776965417 | 17.78° C | 57% | 1015.5 hPa | 0 mm | - | - | - |
| 1776964573 | 17.22° C | 61% | 1015.6 hPa | 0 mm | - | - | - |
| 1776963627 | 17.22° C | 60% | 1015.6 hPa | 0 mm | - | - | - |
| 1776962783 | 16.11° C | 64% | 1015.7 hPa | 0 mm | - | - | - |
| 1776961871 | 16.67° C | 64% | 1015.6 hPa | 0 mm | - | - | - |
| 1776960930 | 16.11° C | 65% | 1015.7 hPa | 0 mm | - | - | - |
| 1776960075 | 15° C | 68% | 1015.7 hPa | 0 mm | - | - | - |
| 1776959150 | 14.44° C | 68% | 1015.8 hPa | 0 mm | - | - | - |
| 1776958220 | 14.44° C | 67% | 1015.8 hPa | 0 mm | - | - | - |
* Rain latest hour (hover to see other rain measurements)
** Current wind speed in m/s (hover to see current wind gust speed)